X  CloseMetar Aviation Weather Data     KABQ Albuquerque International Sunport

Temperature

36°F Temperature

21°F Dewpoint

56% Humidity



Wind

21 MPH

34 KM/H

 9 M/S

18 KTS



330°
NNWdir
Current Conditions

Partly Cloudy Partly Cloudy
Pressure 1014.52 (hPa) - 29.96 (in)
Visibility 10 (mi) - 16.1 (km)
Airport
Airport-code KABQ

Location Albuquerque International Sunport 16 (mi)

Metar:
KABQ 101752Z 33018G24KT 10SM FEW031 FEW120 BKN280 02/M06 A2996 RMK AO2 SLP142 MTNS OBSC NE-SE 60000 T00221056 10022 21006 51021

Time: 01-10-2020 10:52